Time;durP1;ratioP1;P1;durP2;ratioP2;P2;SDS_P1;SDS_P2;PMS_P1;PMS_P2;Temp;Humidity;BMP_temperature;BMP_pressure;BME280_temperature;BME280_humidity;BME280_pressure;Samples;Min_cycle;Max_cycle;Signal;HPM_P1;HPM_P2
2021/07/09 00:03:20;;;;;;;2.40;1.50;;;;;;;;;;5024399;28;20197;-90
2021/07/09 00:06:24;;;;;;;1.97;1.27;;;;;;;;;;5013586;28;20194;-90
2021/07/09 00:09:28;;;;;;;7.57;1.70;;;;;;;;;;5012989;28;20524;-90
2021/07/09 00:12:32;;;;;;;2.20;1.60;;;;;;;;;;5013038;28;20193;-90
2021/07/09 00:15:37;;;;;;;3.17;1.70;;;;;;;;;;5024260;28;20212;-90
2021/07/09 00:18:42;;;;;;;2.27;1.87;;;;;;;;;;5024561;28;20193;-90
2021/07/09 00:21:47;;;;;;;3.67;2.20;;;;;;;;;;5013156;28;20185;-90
2021/07/09 00:24:51;;;;;;;2.73;2.10;;;;;;;;;;5013120;28;20212;-90
2021/07/09 00:27:55;;;;;;;3.17;1.93;;;;;;;;;;5034762;28;20181;-90
2021/07/09 00:31:00;;;;;;;3.90;2.53;;;;;;;;;;5012948;28;20536;-90
2021/07/09 00:34:06;;;;;;;4.10;2.57;;;;;;;;;;5003881;28;20228;-90
2021/07/09 00:37:10;;;;;;;2.53;2.33;;;;;;;;;;5004372;28;20185;-90
2021/07/09 00:40:15;;;;;;;3.60;2.37;;;;;;;;;;5004461;28;20197;-90
2021/07/09 00:43:20;;;;;;;5.70;2.40;;;;;;;;;;4993152;28;20197;-90
2021/07/09 00:46:36;;;;;;;5.13;2.27;;;;;;;;;;4992818;28;20201;-90
2021/07/09 00:49:41;;;;;;;2.90;2.63;;;;;;;;;;5002774;28;20668;-90
2021/07/09 00:52:46;;;;;;;7.70;2.93;;;;;;;;;;5015375;28;20189;-90
2021/07/09 00:55:51;;;;;;;4.07;2.60;;;;;;;;;;5003665;28;20225;-90
2021/07/09 00:58:56;;;;;;;2.57;2.37;;;;;;;;;;5015394;28;20201;-90
2021/07/09 01:02:00;;;;;;;3.23;2.13;;;;;;;;;;4992527;28;20189;-90
2021/07/09 01:05:08;;;;;;;3.20;1.93;;;;;;;;;;5026411;28;20209;-90
2021/07/09 01:08:13;;;;;;;4.70;1.93;;;;;;;;;;4992880;28;20182;-90
2021/07/09 01:11:19;;;;;;;3.73;2.00;;;;;;;;;;4992735;28;20186;-90
2021/07/09 01:14:24;;;;;;;3.40;2.43;;;;;;;;;;4992359;28;20225;-90
2021/07/09 01:17:28;;;;;;;1.73;1.60;;;;;;;;;;4992567;28;20193;-90
2021/07/09 01:20:32;;;;;;;2.27;2.00;;;;;;;;;;4992289;28;20201;-90
2021/07/09 01:23:37;;;;;;;4.70;1.83;;;;;;;;;;4992489;28;20193;-90
2021/07/09 01:26:43;;;;;;;2.10;1.87;;;;;;;;;;4992268;28;20197;-90
2021/07/09 01:29:48;;;;;;;2.10;1.90;;;;;;;;;;5003570;28;20181;-90
2021/07/09 01:32:53;;;;;;;2.80;1.80;;;;;;;;;;5003469;28;20181;-90
2021/07/09 01:35:59;;;;;;;2.10;1.80;;;;;;;;;;5003651;28;20170;-90
2021/07/09 01:39:04;;;;;;;3.20;2.20;;;;;;;;;;5013799;28;20185;-90
2021/07/09 01:42:08;;;;;;;4.47;2.10;;;;;;;;;;5014343;28;20660;-90
2021/07/09 01:45:12;;;;;;;4.10;2.00;;;;;;;;;;5014199;28;20550;-90
2021/07/09 01:48:17;;;;;;;3.93;2.10;;;;;;;;;;5014094;28;20664;-90
2021/07/09 01:51:22;;;;;;;2.37;2.10;;;;;;;;;;5014396;28;20185;-90
2021/07/09 01:54:26;;;;;;;2.40;2.20;;;;;;;;;;5013933;28;20221;-90
2021/07/09 01:57:31;;;;;;;3.93;2.50;;;;;;;;;;4991520;28;20205;-90
2021/07/09 02:00:35;;;;;;;4.00;2.33;;;;;;;;;;4991730;28;20181;-90
2021/07/09 02:03:39;;;;;;;2.47;2.27;;;;;;;;;;4991521;28;20629;-90
2021/07/09 02:06:48;;;;;;;3.70;2.30;;;;;;;;;;5011621;28;20189;-90
2021/07/09 02:09:57;;;;;;;2.97;2.63;;;;;;;;;;5002309;28;20189;-90
2021/07/09 02:13:03;;;;;;;2.83;2.10;;;;;;;;;;5014124;28;20190;-90
2021/07/09 02:16:07;;;;;;;3.13;2.10;;;;;;;;;;5013391;28;20185;-90
2021/07/09 02:19:11;;;;;;;2.23;2.03;;;;;;;;;;5022291;28;20185;-89
2021/07/09 02:22:16;;;;;;;2.27;2.07;;;;;;;;;;5011095;28;20180;-90
2021/07/09 02:25:20;;;;;;;2.93;1.73;;;;;;;;;;5010461;28;20220;-89
2021/07/09 02:28:24;;;;;;;2.23;1.93;;;;;;;;;;5010646;28;20200;-90
2021/07/09 02:31:29;;;;;;;2.17;1.60;;;;;;;;;;5010936;28;20193;-90
2021/07/09 02:34:34;;;;;;;2.53;1.90;;;;;;;;;;5021701;28;20223;-90
2021/07/09 02:37:39;;;;;;;2.20;1.87;;;;;;;;;;5010798;28;20197;-90
2021/07/09 02:40:44;;;;;;;2.80;1.63;;;;;;;;;;5010567;28;20180;-90
2021/07/09 02:43:48;;;;;;;1.60;1.50;;;;;;;;;;5021892;28;20212;-90
2021/07/09 02:46:52;;;;;;;2.13;1.43;;;;;;;;;;5021883;28;20177;-90
2021/07/09 02:49:56;;;;;;;1.37;1.10;;;;;;;;;;5010313;28;20180;-90
2021/07/09 02:53:00;;;;;;;4.40;1.20;;;;;;;;;;5021884;28;20521;-89
2021/07/09 02:56:05;;;;;;;2.20;0.63;;;;;;;;;;5049673;23;20224;-89
2021/07/09 02:59:09;;;;;;;1.93;0.93;;;;;;;;;;5024489;28;20196;-88
2021/07/09 03:02:14;;;;;;;0.87;0.60;;;;;;;;;;5024352;28;20201;-89
2021/07/09 03:05:18;;;;;;;2.20;0.80;;;;;;;;;;5023211;28;20213;-88
2021/07/09 03:08:23;;;;;;;1.40;0.60;;;;;;;;;;5011741;28;20180;-88
2021/07/09 03:11:27;;;;;;;1.13;0.60;;;;;;;;;;4983871;28;20202;-88
2021/07/09 03:14:31;;;;;;;0.47;0.47;;;;;;;;;;4983397;28;20221;-88
2021/07/09 03:17:35;;;;;;;1.73;0.53;;;;;;;;;;4973033;28;20194;-89
2021/07/09 03:20:39;;;;;;;0.40;0.30;;;;;;;;;;4989550;28;20656;-88
2021/07/09 03:23:44;;;;;;;1.33;0.33;;;;;;;;;;4984747;28;20182;-88
2021/07/09 03:26:48;;;;;;;1.53;0.50;;;;;;;;;;4984698;28;20514;-88
2021/07/09 03:29:52;;;;;;;1.70;0.40;;;;;;;;;;4973344;28;20178;-88
2021/07/09 03:32:56;;;;;;;1.33;0.50;;;;;;;;;;4984055;28;20502;-88
2021/07/09 03:36:01;;;;;;;2.37;0.40;;;;;;;;;;4972150;28;20229;-89
2021/07/09 03:39:05;;;;;;;0.63;0.40;;;;;;;;;;4990845;28;20194;-88
2021/07/09 03:42:09;;;;;;;5.20;0.43;;;;;;;;;;4988708;28;20669;-88
2021/07/09 03:45:13;;;;;;;0.47;0.40;;;;;;;;;;4972340;28;20214;-88
2021/07/09 03:48:18;;;;;;;0.73;0.30;;;;;;;;;;4983691;28;20186;-88
2021/07/09 03:51:22;;;;;;;1.77;0.40;;;;;;;;;;4972185;28;20190;-88
2021/07/09 03:54:26;;;;;;;0.30;0.30;;;;;;;;;;4972323;28;20206;-89
2021/07/09 03:57:30;;;;;;;0.30;0.30;;;;;;;;;;4983481;28;20210;-88
2021/07/09 04:00:34;;;;;;;2.20;0.30;;;;;;;;;;4972387;28;20633;-88
2021/07/09 04:03:39;;;;;;;2.27;0.40;;;;;;;;;;4985873;28;20186;-89
2021/07/09 04:06:43;;;;;;;0.63;0.20;;;;;;;;;;4986138;28;20182;-89
2021/07/09 04:09:47;;;;;;;0.77;0.20;;;;;;;;;;4975197;28;20178;-89
2021/07/09 04:12:51;;;;;;;2.00;0.20;;;;;;;;;;4974576;28;20186;-89
2021/07/09 04:15:55;;;;;;;3.90;0.30;;;;;;;;;;4974084;28;20229;-89
2021/07/09 04:18:59;;;;;;;1.60;0.23;;;;;;;;;;4985762;28;20186;-89
2021/07/09 04:22:03;;;;;;;0.33;0.30;;;;;;;;;;4985172;28;20182;-90
2021/07/09 04:25:09;;;;;;;1.20;0.30;;;;;;;;;;4973923;28;20214;-89
2021/07/09 04:28:15;;;;;;;0.40;0.40;;;;;;;;;;4974463;28;20170;-89
2021/07/09 04:31:19;;;;;;;2.53;0.30;;;;;;;;;;4986581;28;20534;-87
2021/07/09 04:34:24;;;;;;;0.40;0.30;;;;;;;;;;4977909;28;20226;-86
2021/07/09 04:37:28;;;;;;;2.23;0.40;;;;;;;;;;4974910;28;20206;-83
2021/07/09 04:40:32;;;;;;;0.57;0.20;;;;;;;;;;4997821;28;20182;-84
2021/07/09 04:43:38;;;;;;;3.80;0.30;;;;;;;;;;4974340;28;20182;-84
2021/07/09 04:46:43;;;;;;;0.50;0.30;;;;;;;;;;4985131;28;20206;-84
2021/07/09 04:49:47;;;;;;;0.23;0.20;;;;;;;;;;4974286;28;20210;-84
2021/07/09 04:52:57;;;;;;;0.80;0.30;;;;;;;;;;4998786;28;20183;-85
2021/07/09 04:56:02;;;;;;;0.77;0.33;;;;;;;;;;5000332;28;20234;-86
2021/07/09 04:59:06;;;;;;;4.50;0.30;;;;;;;;;;4982784;28;20205;-86
2021/07/09 05:02:10;;;;;;;5.60;3.97;;;;;;;;;;5003629;28;20652;-87
2021/07/09 05:05:15;;;;;;;0.30;0.30;;;;;;;;;;4984198;28;20221;-87
2021/07/09 05:08:19;;;;;;;0.60;0.30;;;;;;;;;;4984580;28;20182;-85
2021/07/09 05:11:23;;;;;;;0.33;0.30;;;;;;;;;;4984392;28;20182;-85
2021/07/09 05:14:28;;;;;;;0.50;0.30;;;;;;;;;;4983946;28;20209;-85
2021/07/09 05:17:31;;;;;;;0.50;0.30;;;;;;;;;;4984143;28;20194;-86
2021/07/09 05:20:36;;;;;;;0.20;0.20;;;;;;;;;;4973423;28;20182;-86
2021/07/09 05:23:40;;;;;;;1.00;0.53;;;;;;;;;;4972750;28;20178;-86
2021/07/09 05:26:46;;;;;;;0.70;0.50;;;;;;;;;;4980237;28;20648;-86
2021/07/09 05:29:50;;;;;;;0.53;0.40;;;;;;;;;;4983160;28;20668;-85
2021/07/09 05:32:55;;;;;;;1.43;0.43;;;;;;;;;;4991919;28;20201;-89
2021/07/09 05:35:59;;;;;;;1.70;0.60;;;;;;;;;;4989008;28;20281;-87
2021/07/09 05:39:05;;;;;;;0.90;0.63;;;;;;;;;;4973307;28;20206;-86
2021/07/09 05:42:09;;;;;;;1.00;0.60;;;;;;;;;;5008879;28;20209;-86
2021/07/09 05:45:13;;;;;;;5.47;4.60;;;;;;;;;;5002899;28;20217;-86
2021/07/09 05:48:17;;;;;;;2.13;1.30;;;;;;;;;;4983751;28;20205;-87
2021/07/09 05:51:21;;;;;;;1.07;0.93;;;;;;;;;;4994942;28;20194;-86
2021/07/09 05:54:25;;;;;;;1.37;0.80;;;;;;;;;;5000521;28;20657;-86
2021/07/09 05:57:29;;;;;;;1.03;0.93;;;;;;;;;;4985257;28;20214;-86
2021/07/09 06:00:35;;;;;;;1.33;1.20;;;;;;;;;;4983934;28;20194;-86
2021/07/09 06:03:39;;;;;;;1.50;1.40;;;;;;;;;;4994788;28;20205;-86
2021/07/09 06:06:43;;;;;;;4.83;1.10;;;;;;;;;;5013696;28;20660;-86
2021/07/09 06:09:47;;;;;;;1.40;1.03;;;;;;;;;;5002401;28;20178;-86
2021/07/09 06:12:52;;;;;;;1.37;0.80;;;;;;;;;;4994585;28;20530;-85
2021/07/09 06:15:56;;;;;;;1.53;1.00;;;;;;;;;;5009804;28;20251;-86
2021/07/09 06:19:00;;;;;;;1.53;0.93;;;;;;;;;;5001676;28;20209;-85
2021/07/09 06:22:04;;;;;;;3.07;1.53;;;;;;;;;;5007042;28;20213;-85
2021/07/09 06:25:09;;;;;;;1.40;1.20;;;;;;;;;;5001268;28;20688;-87
2021/07/09 06:28:13;;;;;;;2.30;1.00;;;;;;;;;;4982597;28;20206;-87
2021/07/09 06:31:17;;;;;;;1.67;1.17;;;;;;;;;;4982769;28;20637;-87
2021/07/09 06:34:21;;;;;;;1.97;1.23;;;;;;;;;;4982594;28;20186;-86
2021/07/09 06:37:24;;;;;;;1.93;1.60;;;;;;;;;;4997467;28;20189;-87
2021/07/09 06:40:29;;;;;;;1.53;1.43;;;;;;;;;;4982576;28;20190;-87
2021/07/09 06:43:33;;;;;;;2.60;1.37;;;;;;;;;;4998693;28;20197;-89
2021/07/09 06:46:39;;;;;;;2.60;1.10;;;;;;;;;;5001948;28;20217;-87
2021/07/09 06:49:43;;;;;;;1.33;1.23;;;;;;;;;;5002275;28;20204;-87
2021/07/09 06:52:47;;;;;;;3.40;2.37;;;;;;;;;;4987606;28;20558;-87
2021/07/09 06:55:51;;;;;;;6.03;4.40;;;;;;;;;;4970812;28;20233;-87
2021/07/09 06:58:56;;;;;;;14.10;8.50;;;;;;;;;;4984559;28;20205;-88
2021/07/09 07:02:00;;;;;;;14.70;9.43;;;;;;;;;;4981855;28;20277;-87
2021/07/09 07:05:04;;;;;;;9.83;7.30;;;;;;;;;;4976035;28;20239;-88
2021/07/09 07:08:16;;;;;;;6.40;4.23;;;;;;;;;;4993596;28;20208;-87
2021/07/09 07:11:21;;;;;;;33.00;20.80;;;;;;;;;;4982015;28;20213;-87
2021/07/09 07:14:26;;;;;;;10.67;7.90;;;;;;;;;;4974436;28;20217;-87
2021/07/09 07:17:30;;;;;;;2.40;2.20;;;;;;;;;;4983961;28;20196;-88
2021/07/09 07:20:42;;;;;;;3.43;3.03;;;;;;;;;;4989694;28;20668;-88
2021/07/09 07:23:46;;;;;;;2.50;2.23;;;;;;;;;;4982504;28;20198;-87
2021/07/09 07:26:51;;;;;;;4.83;4.10;;;;;;;;;;4998159;28;20208;-88
2021/07/09 07:29:58;;;;;;;2.30;2.10;;;;;;;;;;4975085;28;20641;-88
2021/07/09 07:33:03;;;;;;;1.30;1.20;;;;;;;;;;4985353;28;20209;-88
2021/07/09 07:36:07;;;;;;;1.53;1.43;;;;;;;;;;4984730;28;20222;-88
2021/07/09 07:39:11;;;;;;;1.30;1.20;;;;;;;;;;4992771;28;20185;-87
2021/07/09 07:42:15;;;;;;;1.63;1.13;;;;;;;;;;4978817;28;20560;-88
2021/07/09 07:45:19;;;;;;;1.90;1.60;;;;;;;;;;4990998;28;20676;-87
2021/07/09 07:48:23;;;;;;;1.33;1.20;;;;;;;;;;4992974;28;20209;-87
2021/07/09 07:51:27;;;;;;;2.67;1.60;;;;;;;;;;4996859;28;20550;-87
2021/07/09 07:54:31;;;;;;;2.03;1.83;;;;;;;;;;4985166;28;20206;-88
2021/07/09 07:57:35;;;;;;;1.47;1.37;;;;;;;;;;4978720;28;20182;-87
2021/07/09 08:00:40;;;;;;;3.00;1.27;;;;;;;;;;4996702;28;20669;-87
2021/07/09 08:03:44;;;;;;;2.50;1.30;;;;;;;;;;4990743;28;20193;-88
2021/07/09 08:06:48;;;;;;;2.63;1.20;;;;;;;;;;4993342;28;20193;-90
2021/07/09 08:09:52;;;;;;;3.60;2.00;;;;;;;;;;4987301;28;20209;-86
2021/07/09 08:12:56;;;;;;;2.00;1.50;;;;;;;;;;5003344;28;20213;-88
2021/07/09 08:16:00;;;;;;;2.70;1.50;;;;;;;;;;4979848;28;20221;-87
2021/07/09 08:19:05;;;;;;;1.70;1.40;;;;;;;;;;4985986;28;20214;-91
2021/07/09 08:22:09;;;;;;;1.70;1.60;;;;;;;;;;4975003;28;20201;-88
2021/07/09 08:25:13;;;;;;;1.63;1.43;;;;;;;;;;4985032;28;20217;-87
2021/07/09 08:28:19;;;;;;;1.70;1.50;;;;;;;;;;4996359;28;20194;-88
2021/07/09 08:31:23;;;;;;;1.90;1.60;;;;;;;;;;4980912;28;20194;-89
2021/07/09 08:34:27;;;;;;;2.03;1.47;;;;;;;;;;4983466;28;20194;-89
2021/07/09 08:37:31;;;;;;;4.77;1.40;;;;;;;;;;4984133;28;20218;-89
2021/07/09 08:40:36;;;;;;;1.20;1.10;;;;;;;;;;4988697;28;20194;-88
2021/07/09 08:43:40;;;;;;;1.70;1.60;;;;;;;;;;4981745;28;20201;-89
2021/07/09 08:46:45;;;;;;;1.40;1.30;;;;;;;;;;4982279;28;20214;-89
2021/07/09 08:49:50;;;;;;;2.03;1.40;;;;;;;;;;4996168;28;20661;-88
2021/07/09 08:52:54;;;;;;;1.80;1.07;;;;;;;;;;4995895;28;20182;-88
2021/07/09 08:55:58;;;;;;;1.40;1.30;;;;;;;;;;4975881;28;20222;-88
2021/07/09 08:59:03;;;;;;;1.20;1.10;;;;;;;;;;4984393;28;20205;-88
2021/07/09 09:02:07;;;;;;;1.23;1.13;;;;;;;;;;4986277;28;20668;-88
2021/07/09 09:05:19;;;;;;;2.80;1.20;;;;;;;;;;4980860;28;20561;-88
2021/07/09 09:08:23;;;;;;;1.20;1.10;;;;;;;;;;4983750;28;20665;-87
2021/07/09 09:11:29;;;;;;;1.10;1.00;;;;;;;;;;4995197;28;20186;-88
2021/07/09 09:14:35;;;;;;;1.77;1.67;;;;;;;;;;4983902;28;20519;-88
2021/07/09 09:17:39;;;;;;;1.27;1.17;;;;;;;;;;4984294;28;20206;-87
2021/07/09 09:20:43;;;;;;;1.03;1.03;;;;;;;;;;4984098;28;20186;-87
2021/07/09 09:23:47;;;;;;;1.10;1.00;;;;;;;;;;4991415;28;20201;-87
2021/07/09 09:26:53;;;;;;;1.00;0.90;;;;;;;;;;4973436;28;20186;-89
2021/07/09 09:30:16;;;;;;;1.37;0.90;;;;;;;;;;4989603;28;20213;-89
2021/07/09 09:33:21;;;;;;;2.10;0.80;;;;;;;;;;4984710;28;20194;-89
2021/07/09 09:36:25;;;;;;;1.20;0.90;;;;;;;;;;4997467;28;20679;-88
2021/07/09 09:39:30;;;;;;;0.80;0.80;;;;;;;;;;5004693;28;20217;-89
2021/07/09 09:42:39;;;;;;;0.90;0.80;;;;;;;;;;4994733;28;20198;-88
2021/07/09 09:45:44;;;;;;;1.83;1.10;;;;;;;;;;4973810;28;20226;-89
2021/07/09 09:48:48;;;;;;;0.67;0.67;;;;;;;;;;4995121;28;20206;-88
2021/07/09 09:51:52;;;;;;;0.87;0.83;;;;;;;;;;4994398;28;20217;-88
2021/07/09 09:54:58;;;;;;;1.00;0.73;;;;;;;;;;4973502;28;20301;-89
2021/07/09 09:58:12;;;;;;;1.33;0.87;;;;;;;;;;4986382;28;20221;-87
2021/07/09 10:01:30;;;;;;;2.27;0.90;;;;;;;;;;4982041;28;20569;-89
2021/07/09 10:05:10;;;;;;;1.23;0.70;;;;;;;;;;4999275;23;20222;-88
2021/07/09 10:08:42;;;;;;;0.80;0.80;;;;;;;;;;4984052;28;20186;-89
2021/07/09 10:12:29;;;;;;;0.97;0.80;;;;;;;;;;4974549;28;20186;-88
2021/07/09 10:15:36;;;;;;;1.00;0.77;;;;;;;;;;4936251;29;20208;-88
2021/07/09 10:18:45;;;;;;;2.70;1.03;;;;;;;;;;4945093;29;20179;-88
2021/07/09 10:21:55;;;;;;;2.13;0.80;;;;;;;;;;4955702;29;20627;-88
2021/07/09 10:25:00;;;;;;;1.27;0.73;;;;;;;;;;4933330;29;20231;-87
2021/07/09 10:28:08;;;;;;;0.90;0.90;;;;;;;;;;4955478;29;20184;-87
2021/07/09 10:31:35;;;;;;;2.03;1.00;;;;;;;;;;4944415;29;20184;-87
2021/07/09 10:34:48;;;;;;;1.37;0.90;;;;;;;;;;4955217;29;20215;-87
2021/07/09 10:38:07;;;;;;;1.00;0.90;;;;;;;;;;4943759;29;20211;-87
2021/07/09 10:41:17;;;;;;;1.10;1.00;;;;;;;;;;4944376;29;20187;-87
2021/07/09 10:44:21;;;;;;;0.93;0.90;;;;;;;;;;4933063;29;20219;-87
2021/07/09 10:47:39;;;;;;;1.80;1.10;;;;;;;;;;4955149;28;20187;-87
2021/07/09 10:50:49;;;;;;;1.00;0.90;;;;;;;;;;4933471;29;20188;-87
2021/07/09 10:54:26;;;;;;;1.00;0.90;;;;;;;;;;4944068;29;20227;-87
2021/07/09 10:57:31;;;;;;;4.00;0.90;;;;;;;;;;4932992;29;20211;-87
2021/07/09 11:00:46;;;;;;;3.17;1.00;;;;;;;;;;4944289;29;20195;-87
2021/07/09 11:03:54;;;;;;;0.80;0.77;;;;;;;;;;4943898;29;20227;-87
2021/07/09 11:07:20;;;;;;;2.10;1.90;;;;;;;;;;4933121;29;20191;-86
2021/07/09 11:11:02;;;;;;;25.50;13.80;;;;;;;;;;4943776;28;20188;-87
2021/07/09 11:14:08;;;;;;;20.83;14.83;;;;;;;;;;4948176;29;20222;-87
2021/07/09 11:17:15;;;;;;;3.37;2.80;;;;;;;;;;4936790;29;20234;-87
2021/07/09 11:20:19;;;;;;;1.67;1.57;;;;;;;;;;4947842;29;20187;-88
2021/07/09 11:23:24;;;;;;;3.10;1.33;;;;;;;;;;4958817;29;20222;-87
2021/07/09 11:26:29;;;;;;;2.53;1.20;;;;;;;;;;4936713;29;20634;-87
2021/07/09 11:29:39;;;;;;;1.80;1.70;;;;;;;;;;4937029;29;20199;-88
2021/07/09 11:32:43;;;;;;;1.60;1.50;;;;;;;;;;4958613;29;20199;-88
2021/07/09 11:35:48;;;;;;;2.33;1.60;;;;;;;;;;4937106;29;20183;-88
2021/07/09 11:39:06;;;;;;;1.70;1.60;;;;;;;;;;4937073;29;20179;-87
2021/07/09 11:42:16;;;;;;;3.27;1.57;;;;;;;;;;4937002;29;20192;-87
2021/07/09 11:45:23;;;;;;;2.10;1.60;;;;;;;;;;4937008;29;20188;-88
2021/07/09 11:48:27;;;;;;;2.30;1.77;;;;;;;;;;4936756;29;20172;-88
2021/07/09 11:51:31;;;;;;;2.03;1.40;;;;;;;;;;4936562;29;20191;-87
2021/07/09 11:54:38;;;;;;;2.60;1.63;;;;;;;;;;4947252;29;20223;-87
2021/07/09 11:57:43;;;;;;;1.83;1.67;;;;;;;;;;4947396;29;20207;-88
2021/07/09 12:00:47;;;;;;;1.90;1.80;;;;;;;;;;4936343;29;20191;-90
2021/07/09 12:03:51;;;;;;;2.57;1.80;;;;;;;;;;4936188;29;20227;-90
2021/07/09 12:07:14;;;;;;;2.10;1.90;;;;;;;;;;4936257;29;20183;-88
2021/07/09 12:10:20;;;;;;;2.37;2.17;;;;;;;;;;4947534;29;20179;-88
2021/07/09 12:13:24;;;;;;;3.13;1.83;;;;;;;;;;4936254;29;20706;-88
2021/07/09 12:16:29;;;;;;;1.93;1.83;;;;;;;;;;4958324;29;20191;-87
2021/07/09 12:19:51;;;;;;;2.50;2.20;;;;;;;;;;4946707;29;20639;-88
2021/07/09 12:22:57;;;;;;;4.43;2.50;;;;;;;;;;4956934;28;21907;-88
2021/07/09 12:26:08;;;;;;;3.17;2.30;;;;;;;;;;4936001;29;20179;-88
2021/07/09 12:29:13;;;;;;;2.57;2.37;;;;;;;;;;4946841;29;20184;-88
2021/07/09 12:32:17;;;;;;;2.70;2.50;;;;;;;;;;4935892;29;20175;-88
2021/07/09 12:35:22;;;;;;;2.77;2.50;;;;;;;;;;4946789;29;20180;-88
2021/07/09 12:38:28;;;;;;;2.93;2.57;;;;;;;;;;4946433;29;20208;-88
2021/07/09 12:41:33;;;;;;;4.27;2.57;;;;;;;;;;4935943;29;20191;-88
2021/07/09 12:44:50;;;;;;;2.77;2.57;;;;;;;;;;4957059;29;20210;-88
2021/07/09 12:47:54;;;;;;;2.70;2.30;;;;;;;;;;4935481;29;20184;-88
2021/07/09 12:51:00;;;;;;;2.57;2.37;;;;;;;;;;4957466;28;20184;-88
2021/07/09 12:54:11;;;;;;;2.90;2.10;;;;;;;;;;4946227;29;20219;-88
2021/07/09 12:57:22;;;;;;;4.67;2.63;;;;;;;;;;4957332;29;20207;-88
2021/07/09 13:00:38;;;;;;;2.70;2.50;;;;;;;;;;4946865;29;20234;-88
2021/07/09 13:03:46;;;;;;;2.63;2.40;;;;;;;;;;4946119;29;20235;-88
2021/07/09 13:07:05;;;;;;;2.90;2.70;;;;;;;;;;4967805;28;20187;-88
2021/07/09 13:10:16;;;;;;;3.23;2.73;;;;;;;;;;4957266;29;20306;-88
2021/07/09 13:13:20;;;;;;;2.63;2.30;;;;;;;;;;4957016;28;20215;-88
2021/07/09 13:16:26;;;;;;;2.70;2.50;;;;;;;;;;4957152;28;20183;-88
2021/07/09 13:19:35;;;;;;;3.53;2.33;;;;;;;;;;4956925;28;20184;-88
2021/07/09 13:22:48;;;;;;;2.43;2.23;;;;;;;;;;4945591;29;20187;-88
2021/07/09 13:26:12;;;;;;;2.37;2.20;;;;;;;;;;4945806;29;20183;-88
2021/07/09 13:29:24;;;;;;;3.70;2.90;;;;;;;;;;4945785;29;20184;-88
2021/07/09 13:32:38;;;;;;;2.73;2.50;;;;;;;;;;4956793;28;20188;-88
2021/07/09 13:35:48;;;;;;;2.63;2.43;;;;;;;;;;4945556;29;20184;-88
2021/07/09 13:38:52;;;;;;;2.97;2.60;;;;;;;;;;4934273;29;20233;-88
2021/07/09 13:41:56;;;;;;;3.90;2.77;;;;;;;;;;4956199;29;20195;-88
2021/07/09 13:45:03;;;;;;;6.27;2.53;;;;;;;;;;4945433;29;20223;-88
2021/07/09 13:48:11;;;;;;;2.40;2.20;;;;;;;;;;4945297;29;20279;-90
2021/07/09 13:51:18;;;;;;;2.67;2.47;;;;;;;;;;4955885;29;20180;-90
2021/07/09 13:54:22;;;;;;;3.53;1.80;;;;;;;;;;4944841;29;20215;-88
2021/07/09 13:57:27;;;;;;;2.40;2.20;;;;;;;;;;4934293;29;20211;-88
2021/07/09 14:00:33;;;;;;;2.43;2.23;;;;;;;;;;4945191;29;20626;-88
2021/07/09 14:03:37;;;;;;;2.50;2.20;;;;;;;;;;4934320;29;20256;-88
2021/07/09 14:06:41;;;;;;;3.50;2.30;;;;;;;;;;4945116;29;20191;-88
2021/07/09 14:09:45;;;;;;;2.60;2.40;;;;;;;;;;4944843;29;20635;-88
2021/07/09 14:12:49;;;;;;;3.97;2.60;;;;;;;;;;4945245;29;20627;-88
2021/07/09 14:15:54;;;;;;;3.00;2.67;;;;;;;;;;4934477;29;20191;-88
2021/07/09 14:18:59;;;;;;;2.70;2.50;;;;;;;;;;4955749;29;20199;-89
2021/07/09 14:22:04;;;;;;;2.60;2.40;;;;;;;;;;4944976;29;20187;-89
2021/07/09 14:25:14;;;;;;;3.03;2.80;;;;;;;;;;4955805;29;20255;-90
2021/07/09 14:28:36;;;;;;;3.20;2.90;;;;;;;;;;4933736;29;20184;-88
2021/07/09 14:31:57;;;;;;;3.00;2.70;;;;;;;;;;4944953;29;20183;-88
2021/07/09 14:35:02;;;;;;;2.87;2.63;;;;;;;;;;4955988;29;20203;-88
2021/07/09 14:39:06;;;;;;;4.33;2.80;;;;;;;;;;4945446;29;20212;-89
2021/07/09 14:42:13;;;;;;;5.40;3.60;;;;;;;;;;4954992;29;20208;-90
2021/07/09 14:45:18;;;;;;;3.57;3.07;;;;;;;;;;4944261;28;20189;-89
2021/07/09 14:48:22;;;;;;;3.60;2.67;;;;;;;;;;4955721;29;20199;-89
2021/07/09 14:51:27;;;;;;;5.23;2.63;;;;;;;;;;4955335;29;20201;-90
2021/07/09 14:54:31;;;;;;;6.17;3.30;;;;;;;;;;4933466;29;20227;-90
2021/07/09 14:57:38;;;;;;;2.70;2.50;;;;;;;;;;4933527;29;20212;-90
2021/07/09 15:00:42;;;;;;;4.37;2.80;;;;;;;;;;4943819;29;20193;-89
2021/07/09 15:03:46;;;;;;;3.10;2.80;;;;;;;;;;4932982;29;20563;-90
2021/07/09 15:06:54;;;;;;;3.70;3.40;;;;;;;;;;4933262;29;20189;-90
2021/07/09 15:09:58;;;;;;;2.90;2.50;;;;;;;;;;4933289;29;20532;-89
2021/07/09 15:13:02;;;;;;;6.10;2.90;;;;;;;;;;4966020;28;20560;-89
2021/07/09 15:16:06;;;;;;;3.97;2.97;;;;;;;;;;4933377;29;20184;-89
2021/07/09 15:19:11;;;;;;;3.00;2.70;;;;;;;;;;4954950;29;20213;-89
2021/07/09 15:22:15;;;;;;;4.33;3.20;;;;;;;;;;4944857;29;20203;-90
2021/07/09 15:25:19;;;;;;;5.03;3.43;;;;;;;;;;4955137;29;20183;-89
2021/07/09 15:28:23;;;;;;;2.97;2.70;;;;;;;;;;4945240;29;20183;-90
2021/07/09 15:31:27;;;;;;;3.47;3.17;;;;;;;;;;4962564;28;20202;-89
2021/07/09 15:34:31;;;;;;;3.33;2.93;;;;;;;;;;4951822;28;20214;-90
2021/07/09 15:37:36;;;;;;;5.20;3.00;;;;;;;;;;4951938;28;20183;-89
2021/07/09 15:40:40;;;;;;;3.27;2.90;;;;;;;;;;4974503;28;20616;-90
2021/07/09 15:43:44;;;;;;;4.90;2.60;;;;;;;;;;4952233;28;20228;-89
2021/07/09 15:46:48;;;;;;;3.83;2.80;;;;;;;;;;4962840;28;20626;-89
2021/07/09 15:49:52;;;;;;;4.00;2.43;;;;;;;;;;4963292;28;20176;-89
2021/07/09 15:52:56;;;;;;;3.33;3.03;;;;;;;;;;4962869;28;20227;-89
2021/07/09 15:56:01;;;;;;;5.37;3.10;;;;;;;;;;4951872;28;20192;-89
2021/07/09 15:59:06;;;;;;;2.87;2.57;;;;;;;;;;4976295;28;20208;-89
2021/07/09 16:02:10;;;;;;;3.50;2.70;;;;;;;;;;4955339;28;20187;-89
2021/07/09 16:05:14;;;;;;;3.37;2.50;;;;;;;;;;5009594;23;20577;-84
2021/07/09 16:08:18;;;;;;;4.10;2.87;;;;;;;;;;4994358;28;20191;-84
2021/07/09 16:11:23;;;;;;;2.53;2.33;;;;;;;;;;4994537;28;20211;-84
2021/07/09 16:14:27;;;;;;;3.30;3.00;;;;;;;;;;4994346;28;20213;-84
2021/07/09 16:17:31;;;;;;;2.80;2.50;;;;;;;;;;5005240;28;20195;-84
2021/07/09 16:20:35;;;;;;;4.47;2.73;;;;;;;;;;5005258;28;20208;-84
2021/07/09 16:23:40;;;;;;;2.60;2.40;;;;;;;;;;5005155;28;20198;-85
2021/07/09 16:26:44;;;;;;;4.30;2.97;;;;;;;;;;5005384;28;20528;-85
2021/07/09 16:29:48;;;;;;;2.90;2.60;;;;;;;;;;4994143;28;20640;-84
2021/07/09 16:32:52;;;;;;;3.20;2.90;;;;;;;;;;4993691;28;20197;-84
2021/07/09 16:35:56;;;;;;;4.10;2.73;;;;;;;;;;5004998;28;20197;-84
2021/07/09 16:39:01;;;;;;;3.60;2.70;;;;;;;;;;4993538;28;20205;-84
2021/07/09 16:42:05;;;;;;;3.07;2.87;;;;;;;;;;5005129;28;20636;-84
2021/07/09 16:45:10;;;;;;;2.83;2.47;;;;;;;;;;5004943;28;20217;-84
2021/07/09 16:48:14;;;;;;;2.80;2.60;;;;;;;;;;5004579;28;20205;-84
2021/07/09 16:51:18;;;;;;;5.00;3.07;;;;;;;;;;5004933;28;20185;-84
2021/07/09 16:54:22;;;;;;;4.27;2.60;;;;;;;;;;5015514;28;20557;-84
2021/07/09 16:57:25;;;;;;;3.23;2.40;;;;;;;;;;5004991;28;20529;-85
2021/07/09 17:00:30;;;;;;;4.97;3.13;;;;;;;;;;5004648;28;20182;-84
2021/07/09 17:03:34;;;;;;;3.13;2.60;;;;;;;;;;4994442;28;20202;-83
2021/07/09 17:06:38;;;;;;;3.03;2.73;;;;;;;;;;4963004;28;20189;-84
2021/07/09 17:09:42;;;;;;;5.07;3.50;;;;;;;;;;4993455;28;20864;-83
2021/07/09 17:12:46;;;;;;;4.20;3.67;;;;;;;;;;4982296;28;20529;-84
2021/07/09 17:15:50;;;;;;;5.77;3.83;;;;;;;;;;4982878;28;20546;-84
2021/07/09 17:18:54;;;;;;;4.60;3.83;;;;;;;;;;4982584;28;20562;-84
2021/07/09 17:21:58;;;;;;;5.73;4.33;;;;;;;;;;4978003;28;20189;-84
2021/07/09 17:25:05;;;;;;;6.43;4.57;;;;;;;;;;4982998;28;20716;-84
2021/07/09 17:28:09;;;;;;;4.80;4.40;;;;;;;;;;4993300;28;20653;-84
2021/07/09 17:31:13;;;;;;;5.20;4.70;;;;;;;;;;4982767;28;20530;-84
2021/07/09 17:34:17;;;;;;;5.03;4.63;;;;;;;;;;4964113;28;20225;-84
2021/07/09 17:37:25;;;;;;;5.27;4.50;;;;;;;;;;4992465;28;20204;-85
2021/07/09 17:40:30;;;;;;;4.73;4.27;;;;;;;;;;4968780;28;20187;-85
2021/07/09 17:43:34;;;;;;;5.43;4.30;;;;;;;;;;4980509;28;20190;-84
2021/07/09 17:46:38;;;;;;;5.40;4.50;;;;;;;;;;4958963;28;20194;-84
2021/07/09 17:49:42;;;;;;;5.67;4.40;;;;;;;;;;4962689;28;20183;-86
2021/07/09 17:52:50;;;;;;;6.00;5.00;;;;;;;;;;4949726;28;20207;-84
2021/07/09 17:55:54;;;;;;;7.60;5.33;;;;;;;;;;4961756;28;20198;-84
2021/07/09 17:58:58;;;;;;;5.00;4.33;;;;;;;;;;4962983;28;20215;-86
2021/07/09 18:02:03;;;;;;;5.07;4.50;;;;;;;;;;4949981;28;20187;-84
2021/07/09 18:05:09;;;;;;;6.17;5.20;;;;;;;;;;4963423;28;20723;-84
2021/07/09 18:08:13;;;;;;;5.20;4.70;;;;;;;;;;4949602;28;20191;-85
2021/07/09 18:11:17;;;;;;;6.90;4.60;;;;;;;;;;4973689;28;20187;-84
2021/07/09 18:14:21;;;;;;;5.83;4.23;;;;;;;;;;4957108;28;20220;-84
2021/07/09 18:17:25;;;;;;;5.13;4.53;;;;;;;;;;4978722;28;20182;-84
2021/07/09 18:20:33;;;;;;;6.13;5.27;;;;;;;;;;4948575;28;20240;-86
2021/07/09 18:23:37;;;;;;;7.07;4.73;;;;;;;;;;4950768;28;20190;-84
2021/07/09 18:26:41;;;;;;;5.30;4.67;;;;;;;;;;4972593;28;20186;-84
2021/07/09 18:29:45;;;;;;;5.57;5.07;;;;;;;;;;4975583;28;20534;-84
2021/07/09 18:32:50;;;;;;;7.70;4.73;;;;;;;;;;4960783;28;20650;-84
2021/07/09 18:35:54;;;;;;;5.87;5.37;;;;;;;;;;4971925;28;20182;-83
2021/07/09 18:38:58;;;;;;;5.80;5.17;;;;;;;;;;4959753;28;20689;-83